sensor_id;sensor_type;location;lat;lon;timestamp;pressure;altitude;pressure_sealevel;temperature;humidity
21779;BME280;11050;52.222;20.916;2023-04-08T00:01:59;100707.31;;;7.52;93.88
21779;BME280;11050;52.222;20.916;2023-04-08T00:04:24;100706.09;;;7.48;94.28
21779;BME280;11050;52.222;20.916;2023-04-08T00:06:50;100702.34;;;7.43;93.96
21779;BME280;11050;52.222;20.916;2023-04-08T00:09:16;100707.22;;;7.41;94.27
21779;BME280;11050;52.222;20.916;2023-04-08T00:11:42;100710.16;;;7.39;94.58
21779;BME280;11050;52.222;20.916;2023-04-08T00:14:08;100711.66;;;7.35;94.58
21779;BME280;11050;52.222;20.916;2023-04-08T00:16:33;100712.72;;;7.34;94.26
21779;BME280;11050;52.222;20.916;2023-04-08T00:18:59;100712.56;;;7.29;94.64
21779;BME280;11050;52.222;20.916;2023-04-08T00:21:25;100720.97;;;7.28;94.32
21779;BME280;11050;52.222;20.916;2023-04-08T00:23:51;100714.47;;;7.29;94.64
21779;BME280;11050;52.222;20.916;2023-04-08T00:26:18;100715.72;;;7.26;95.08
21779;BME280;11050;52.222;20.916;2023-04-08T00:28:44;100714.06;;;7.25;94.34
21779;BME280;11050;52.222;20.916;2023-04-08T00:31:10;100720.59;;;7.24;95.59
21779;BME280;11050;52.222;20.916;2023-04-08T00:33:36;100721.66;;;7.23;95.36
21779;BME280;11050;52.222;20.916;2023-04-08T00:36:01;100717.44;;;7.27;95.12
21779;BME280;11050;52.222;20.916;2023-04-08T00:38:27;100721.59;;;7.30;95.03
21779;BME280;11050;52.222;20.916;2023-04-08T00:40:53;100722.59;;;7.35;94.65
21779;BME280;11050;52.222;20.916;2023-04-08T00:43:19;100719.44;;;7.38;94.20
21779;BME280;11050;52.222;20.916;2023-04-08T00:45:46;100723.63;;;7.41;94.89
21779;BME280;11050;52.222;20.916;2023-04-08T00:48:12;100722.78;;;7.40;94.07
21779;BME280;11050;52.222;20.916;2023-04-08T00:50:38;100718.59;;;7.38;93.15
21779;BME280;11050;52.222;20.916;2023-04-08T00:53:05;100727.03;;;7.36;93.67
21779;BME280;11050;52.222;20.916;2023-04-08T00:55:30;100727.25;;;7.35;93.53
21779;BME280;11050;52.222;20.916;2023-04-08T00:57:57;100725.31;;;7.35;94.33
21779;BME280;11050;52.222;20.916;2023-04-08T01:00:23;100727.63;;;7.38;94.48
21779;BME280;11050;52.222;20.916;2023-04-08T01:03:17;100736.88;;;7.37;94.01
21779;BME280;11050;52.222;20.916;2023-04-08T01:08:26;100737.56;;;7.33;94.02
21779;BME280;11050;52.222;20.916;2023-04-08T01:11:00;100733.38;;;7.30;92.81
21779;BME280;11050;52.222;20.916;2023-04-08T01:13:33;100737.81;;;7.25;92.87
21779;BME280;11050;52.222;20.916;2023-04-08T01:16:02;100744.78;;;7.21;93.74
21779;BME280;11050;52.222;20.916;2023-04-08T01:18:29;100745.25;;;7.18;94.17
21779;BME280;11050;52.222;20.916;2023-04-08T01:20:56;100736.66;;;7.14;94.36
21779;BME280;11050;52.222;20.916;2023-04-08T01:26:31;100741.53;;;7.06;94.22
21779;BME280;11050;52.222;20.916;2023-04-08T01:29:00;100737.38;;;7.03;94.31
21779;BME280;11050;52.222;20.916;2023-04-08T01:31:28;100740.34;;;6.95;95.27
21779;BME280;11050;52.222;20.916;2023-04-08T01:33:56;100740.59;;;6.87;95.42
21779;BME280;11050;52.222;20.916;2023-04-08T01:36:25;100744.88;;;6.77;96.18
21779;BME280;11050;52.222;20.916;2023-04-08T01:38:51;100744.72;;;6.65;96.47
21779;BME280;11050;52.222;20.916;2023-04-08T01:41:18;100741.44;;;6.50;96.39
21779;BME280;11050;52.222;20.916;2023-04-08T01:43:46;100747.34;;;6.40;97.87
21779;BME280;11050;52.222;20.916;2023-04-08T01:46:14;100740.47;;;6.25;98.27
21779;BME280;11050;52.222;20.916;2023-04-08T01:48:40;100751.22;;;6.13;98.57
21779;BME280;11050;52.222;20.916;2023-04-08T01:51:08;100743.69;;;6.02;99.95
21779;BME280;11050;52.222;20.916;2023-04-08T01:53:33;100755.25;;;5.98;100.00
21779;BME280;11050;52.222;20.916;2023-04-08T01:56:07;100751.28;;;5.87;100.00
21779;BME280;11050;52.222;20.916;2023-04-08T01:58:46;100757.53;;;5.81;100.00
21779;BME280;11050;52.222;20.916;2023-04-08T02:01:18;100753.16;;;5.73;100.00
21779;BME280;11050;52.222;20.916;2023-04-08T02:03:47;100754.59;;;5.69;100.00
21779;BME280;11050;52.222;20.916;2023-04-08T02:06:16;100767.00;;;5.59;100.00
21779;BME280;11050;52.222;20.916;2023-04-08T02:08:42;100771.19;;;5.55;100.00
21779;BME280;11050;52.222;20.916;2023-04-08T02:11:08;100771.41;;;5.47;100.00
21779;BME280;11050;52.222;20.916;2023-04-08T02:13:34;100772.44;;;5.39;100.00
21779;BME280;11050;52.222;20.916;2023-04-08T02:16:32;100778.50;;;5.28;100.00
21779;BME280;11050;52.222;20.916;2023-04-08T02:19:13;100764.66;;;5.17;100.00
21779;BME280;11050;52.222;20.916;2023-04-08T02:21:52;100777.47;;;5.16;100.00
21779;BME280;11050;52.222;20.916;2023-04-08T02:24:21;100767.78;;;5.07;100.00
21779;BME280;11050;52.222;20.916;2023-04-08T02:26:49;100770.50;;;5.07;100.00
21779;BME280;11050;52.222;20.916;2023-04-08T02:29:18;100777.84;;;5.00;100.00
21779;BME280;11050;52.222;20.916;2023-04-08T02:31:45;100772.19;;;4.95;100.00
21779;BME280;11050;52.222;20.916;2023-04-08T02:34:12;100786.19;;;4.92;100.00
21779;BME280;11050;52.222;20.916;2023-04-08T02:36:39;100781.38;;;4.88;100.00
21779;BME280;11050;52.222;20.916;2023-04-08T02:39:07;100772.16;;;4.82;100.00
21779;BME280;11050;52.222;20.916;2023-04-08T02:41:33;100791.22;;;4.82;100.00
21779;BME280;11050;52.222;20.916;2023-04-08T02:43:58;100788.25;;;4.77;100.00
21779;BME280;11050;52.222;20.916;2023-04-08T02:46:24;100788.66;;;4.74;100.00
21779;BME280;11050;52.222;20.916;2023-04-08T02:48:50;100788.03;;;4.72;100.00
21779;BME280;11050;52.222;20.916;2023-04-08T02:51:15;100792.41;;;4.66;100.00
21779;BME280;11050;52.222;20.916;2023-04-08T02:53:41;100806.44;;;4.63;100.00
21779;BME280;11050;52.222;20.916;2023-04-08T02:56:10;100798.22;;;4.57;100.00
21779;BME280;11050;52.222;20.916;2023-04-08T02:58:36;100806.41;;;4.57;100.00
21779;BME280;11050;52.222;20.916;2023-04-08T03:01:02;100804.91;;;4.54;100.00
21779;BME280;11050;52.222;20.916;2023-04-08T03:03:28;100813.50;;;4.51;100.00
21779;BME280;11050;52.222;20.916;2023-04-08T03:05:56;100819.13;;;4.50;100.00
21779;BME280;11050;52.222;20.916;2023-04-08T03:08:22;100823.31;;;4.46;100.00
21779;BME280;11050;52.222;20.916;2023-04-08T03:10:49;100824.75;;;4.42;100.00
21779;BME280;11050;52.222;20.916;2023-04-08T03:13:15;100830.38;;;4.40;100.00
21779;BME280;11050;52.222;20.916;2023-04-08T03:15:42;100827.25;;;4.37;100.00
21779;BME280;11050;52.222;20.916;2023-04-08T03:18:08;100825.53;;;4.36;100.00
21779;BME280;11050;52.222;20.916;2023-04-08T03:20:33;100817.16;;;4.31;100.00
21779;BME280;11050;52.222;20.916;2023-04-08T03:22:59;100831.41;;;4.33;100.00
21779;BME280;11050;52.222;20.916;2023-04-08T03:25:25;100830.97;;;4.36;100.00
21779;BME280;11050;52.222;20.916;2023-04-08T03:27:54;100827.63;;;4.34;100.00
21779;BME280;11050;52.222;20.916;2023-04-08T03:30:20;100833.47;;;4.31;100.00
21779;BME280;11050;52.222;20.916;2023-04-08T03:32:46;100825.72;;;4.28;100.00
21779;BME280;11050;52.222;20.916;2023-04-08T03:35:12;100835.97;;;4.26;100.00
21779;BME280;11050;52.222;20.916;2023-04-08T03:37:38;100836.13;;;4.24;100.00
21779;BME280;11050;52.222;20.916;2023-04-08T03:40:04;100838.25;;;4.22;100.00
21779;BME280;11050;52.222;20.916;2023-04-08T03:42:30;100843.88;;;4.21;100.00
21779;BME280;11050;52.222;20.916;2023-04-08T03:44:56;100835.47;;;4.16;100.00
21779;BME280;11050;52.222;20.916;2023-04-08T03:47:23;100840.72;;;4.17;100.00
21779;BME280;11050;52.222;20.916;2023-04-08T03:49:48;100844.69;;;4.15;100.00
21779;BME280;11050;52.222;20.916;2023-04-08T03:52:14;100846.75;;;4.13;100.00
21779;BME280;11050;52.222;20.916;2023-04-08T03:54:40;100852.56;;;4.10;100.00
21779;BME280;11050;52.222;20.916;2023-04-08T03:57:05;100843.97;;;4.06;100.00
21779;BME280;11050;52.222;20.916;2023-04-08T03:59:31;100845.84;;;4.06;100.00
21779;BME280;11050;52.222;20.916;2023-04-08T04:01:58;100848.56;;;4.06;100.00
21779;BME280;11050;52.222;20.916;2023-04-08T04:04:24;100843.53;;;4.03;100.00
21779;BME280;11050;52.222;20.916;2023-04-08T04:06:50;100862.16;;;4.06;100.00
21779;BME280;11050;52.222;20.916;2023-04-08T04:09:15;100856.09;;;4.04;100.00
21779;BME280;11050;52.222;20.916;2023-04-08T04:11:41;100853.56;;;4.02;100.00
21779;BME280;11050;52.222;20.916;2023-04-08T04:14:07;100863.22;;;4.05;100.00
21779;BME280;11050;52.222;20.916;2023-04-08T04:16:32;100861.34;;;4.05;100.00
21779;BME280;11050;52.222;20.916;2023-04-08T04:18:58;100861.34;;;4.05;100.00
21779;BME280;11050;52.222;20.916;2023-04-08T04:21:24;100859.28;;;4.07;100.00
21779;BME280;11050;52.222;20.916;2023-04-08T04:23:50;100868.25;;;4.08;100.00
21779;BME280;11050;52.222;20.916;2023-04-08T04:26:15;100869.75;;;4.10;100.00
21779;BME280;11050;52.222;20.916;2023-04-08T04:28:41;100873.47;;;4.09;100.00
21779;BME280;11050;52.222;20.916;2023-04-08T04:31:07;100881.47;;;4.11;100.00
21779;BME280;11050;52.222;20.916;2023-04-08T04:33:32;100875.41;;;4.15;100.00
21779;BME280;11050;52.222;20.916;2023-04-08T04:35:58;100883.66;;;4.22;100.00
21779;BME280;11050;52.222;20.916;2023-04-08T04:38:24;100893.25;;;4.24;100.00
21779;BME280;11050;52.222;20.916;2023-04-08T04:40:50;100891.66;;;4.30;100.00
21779;BME280;11050;52.222;20.916;2023-04-08T04:43:15;100894.63;;;4.35;100.00
21779;BME280;11050;52.222;20.916;2023-04-08T04:45:41;100890.47;;;4.39;100.00
21779;BME280;11050;52.222;20.916;2023-04-08T04:48:07;100894.47;;;4.43;100.00
21779;BME280;11050;52.222;20.916;2023-04-08T04:50:32;100901.16;;;4.47;100.00
21779;BME280;11050;52.222;20.916;2023-04-08T04:52:58;100904.78;;;4.54;100.00
21779;BME280;11050;52.222;20.916;2023-04-08T04:55:24;100900.22;;;4.61;100.00
21779;BME280;11050;52.222;20.916;2023-04-08T04:57:50;100900.06;;;4.69;100.00
21779;BME280;11050;52.222;20.916;2023-04-08T05:00:16;100901.13;;;4.74;100.00
21779;BME280;11050;52.222;20.916;2023-04-08T05:02:41;100906.22;;;4.84;100.00
21779;BME280;11050;52.222;20.916;2023-04-08T05:05:07;100901.00;;;4.89;100.00
21779;BME280;11050;52.222;20.916;2023-04-08T05:07:37;100903.34;;;4.99;100.00
21779;BME280;11050;52.222;20.916;2023-04-08T05:10:04;100910.50;;;5.06;100.00
21779;BME280;11050;52.222;20.916;2023-04-08T05:12:30;100909.47;;;5.14;100.00
21779;BME280;11050;52.222;20.916;2023-04-08T05:14:59;100911.81;;;5.23;100.00
21779;BME280;11050;52.222;20.916;2023-04-08T05:17:25;100911.44;;;5.33;100.00
21779;BME280;11050;52.222;20.916;2023-04-08T05:19:51;100913.97;;;5.41;100.00
21779;BME280;11050;52.222;20.916;2023-04-08T05:22:18;100906.84;;;5.46;100.00
21779;BME280;11050;52.222;20.916;2023-04-08T05:24:43;100921.16;;;5.61;100.00
21779;BME280;11050;52.222;20.916;2023-04-08T05:27:09;100921.16;;;5.68;100.00
21779;BME280;11050;52.222;20.916;2023-04-08T05:29:35;100923.47;;;5.77;100.00
21779;BME280;11050;52.222;20.916;2023-04-08T05:32:01;100928.78;;;5.86;100.00
21779;BME280;11050;52.222;20.916;2023-04-08T05:34:26;100925.63;;;5.95;100.00
21779;BME280;11050;52.222;20.916;2023-04-08T05:36:52;100927.31;;;6.03;100.00
21779;BME280;11050;52.222;20.916;2023-04-08T05:39:19;100922.91;;;6.08;100.00
21779;BME280;11050;52.222;20.916;2023-04-08T05:41:45;100931.53;;;6.18;100.00
21779;BME280;11050;52.222;20.916;2023-04-08T05:44:12;100926.91;;;6.25;100.00
21779;BME280;11050;52.222;20.916;2023-04-08T05:46:38;100927.94;;;6.37;100.00
21779;BME280;11050;52.222;20.916;2023-04-08T05:49:04;100941.78;;;6.49;100.00
21779;BME280;11050;52.222;20.916;2023-04-08T05:51:30;100932.94;;;6.60;100.00
21779;BME280;11050;52.222;20.916;2023-04-08T05:53:56;100940.69;;;6.69;100.00
21779;BME280;11050;52.222;20.916;2023-04-08T05:56:22;100942.13;;;6.85;100.00
21779;BME280;11050;52.222;20.916;2023-04-08T05:58:47;100941.25;;;6.98;100.00
21779;BME280;11050;52.222;20.916;2023-04-08T06:01:13;100944.81;;;7.05;100.00
21779;BME280;11050;52.222;20.916;2023-04-08T06:03:39;100949.63;;;7.16;100.00
21779;BME280;11050;52.222;20.916;2023-04-08T06:06:11;100948.72;;;7.28;99.77
21779;BME280;11050;52.222;20.916;2023-04-08T06:08:37;100957.09;;;7.40;98.07
21779;BME280;11050;52.222;20.916;2023-04-08T06:11:02;100961.22;;;7.55;97.60
21779;BME280;11050;52.222;20.916;2023-04-08T06:13:30;100963.25;;;7.66;95.90
21779;BME280;11050;52.222;20.916;2023-04-08T06:15:56;100957.53;;;7.75;94.25
21779;BME280;11050;52.222;20.916;2023-04-08T06:18:22;100958.72;;;7.85;93.52
21779;BME280;11050;52.222;20.916;2023-04-08T06:20:48;100949.41;;;7.93;91.48
21779;BME280;11050;52.222;20.916;2023-04-08T06:23:14;100958.16;;;8.08;91.01
21779;BME280;11050;52.222;20.916;2023-04-08T06:25:40;100957.88;;;8.16;89.95
21779;BME280;11050;52.222;20.916;2023-04-08T06:28:06;100953.59;;;8.26;89.44
21779;BME280;11050;52.222;20.916;2023-04-08T06:30:32;100971.50;;;8.29;87.70
21779;BME280;11050;52.222;20.916;2023-04-08T06:32:58;100961.09;;;8.37;87.68
21779;BME280;11050;52.222;20.916;2023-04-08T06:35:23;100962.06;;;8.49;86.30
21779;BME280;11050;52.222;20.916;2023-04-08T06:37:49;100960.78;;;8.52;85.72
21779;BME280;11050;52.222;20.916;2023-04-08T06:40:15;100967.56;;;8.68;84.89
21779;BME280;11050;52.222;20.916;2023-04-08T06:42:41;100968.75;;;8.78;83.77
21779;BME280;11050;52.222;20.916;2023-04-08T06:45:09;100966.63;;;8.80;83.43
21779;BME280;11050;52.222;20.916;2023-04-08T06:47:35;100976.13;;;8.96;82.53
21779;BME280;11050;52.222;20.916;2023-04-08T06:50:01;100965.97;;;9.03;81.99
21779;BME280;11050;52.222;20.916;2023-04-08T06:52:27;100976.44;;;9.24;80.94
21779;BME280;11050;52.222;20.916;2023-04-08T06:54:52;100977.22;;;9.31;79.69
21779;BME280;11050;52.222;20.916;2023-04-08T06:57:18;100976.09;;;9.38;79.39
21779;BME280;11050;52.222;20.916;2023-04-08T06:59:44;100978.06;;;9.49;78.37
21779;BME280;11050;52.222;20.916;2023-04-08T07:02:11;100982.28;;;9.64;77.51
21779;BME280;11050;52.222;20.916;2023-04-08T07:04:37;100991.28;;;9.71;76.94
21779;BME280;11050;52.222;20.916;2023-04-08T07:07:02;100987.41;;;9.78;76.12
21779;BME280;11050;52.222;20.916;2023-04-08T07:09:28;100991.72;;;9.86;74.82
21779;BME280;11050;52.222;20.916;2023-04-08T07:11:54;100989.34;;;9.89;74.59
21779;BME280;11050;52.222;20.916;2023-04-08T07:14:20;100992.59;;;9.98;75.21
21779;BME280;11050;52.222;20.916;2023-04-08T07:16:46;100982.72;;;10.08;74.44
21779;BME280;11050;52.222;20.916;2023-04-08T07:19:11;100988.28;;;10.20;73.66
21779;BME280;11050;52.222;20.916;2023-04-08T07:21:37;100996.66;;;10.25;72.71
21779;BME280;11050;52.222;20.916;2023-04-08T07:24:03;100999.41;;;10.25;72.79
21779;BME280;11050;52.222;20.916;2023-04-08T07:26:29;100995.38;;;10.39;73.02
21779;BME280;11050;52.222;20.916;2023-04-08T07:28:54;100992.28;;;10.47;71.37
21779;BME280;11050;52.222;20.916;2023-04-08T07:31:20;100999.69;;;10.58;72.14
21779;BME280;11050;52.222;20.916;2023-04-08T07:33:46;101001.78;;;10.74;71.49
21779;BME280;11050;52.222;20.916;2023-04-08T07:36:13;101002.13;;;10.89;69.60
21779;BME280;11050;52.222;20.916;2023-04-08T07:38:39;100991.97;;;10.90;69.38
21779;BME280;11050;52.222;20.916;2023-04-08T07:41:05;100992.34;;;10.93;68.44
21779;BME280;11050;52.222;20.916;2023-04-08T07:43:32;100989.69;;;10.98;68.96
21779;BME280;11050;52.222;20.916;2023-04-08T07:46:05;100992.69;;;11.08;68.59
21779;BME280;11050;52.222;20.916;2023-04-08T07:48:32;101000.09;;;11.08;68.54
21779;BME280;11050;52.222;20.916;2023-04-08T07:51:04;100994.34;;;11.09;69.42
21779;BME280;11050;52.222;20.916;2023-04-08T07:53:30;100996.72;;;11.29;68.75
21779;BME280;11050;52.222;20.916;2023-04-08T07:55:56;100999.69;;;11.39;67.26
21779;BME280;11050;52.222;20.916;2023-04-08T07:58:22;101007.56;;;11.47;66.80
21779;BME280;11050;52.222;20.916;2023-04-08T08:00:49;101004.53;;;11.60;67.51
21779;BME280;11050;52.222;20.916;2023-04-08T08:03:15;101005.03;;;11.69;65.87
21779;BME280;11050;52.222;20.916;2023-04-08T08:05:41;101002.00;;;11.82;66.41
21779;BME280;11050;52.222;20.916;2023-04-08T08:08:07;101003.63;;;11.94;65.97
21779;BME280;11050;52.222;20.916;2023-04-08T08:10:37;100998.97;;;11.95;64.46
21779;BME280;11050;52.222;20.916;2023-04-08T08:13:04;101009.09;;;12.06;64.39
21779;BME280;11050;52.222;20.916;2023-04-08T08:15:31;101000.66;;;12.12;63.73
21779;BME280;11050;52.222;20.916;2023-04-08T08:17:57;100995.50;;;12.16;64.15
21779;BME280;11050;52.222;20.916;2023-04-08T08:20:23;101004.84;;;12.15;62.91
21779;BME280;11050;52.222;20.916;2023-04-08T08:22:48;100994.28;;;12.23;63.37
21779;BME280;11050;52.222;20.916;2023-04-08T08:25:15;100981.41;;;12.29;63.32
21779;BME280;11050;52.222;20.916;2023-04-08T08:27:42;100995.47;;;12.44;61.78
21779;BME280;11050;52.222;20.916;2023-04-08T08:30:08;101003.16;;;12.59;61.90
21779;BME280;11050;52.222;20.916;2023-04-08T08:32:34;101000.59;;;12.69;62.01
21779;BME280;11050;52.222;20.916;2023-04-08T08:35:01;100993.81;;;12.76;61.35
21779;BME280;11050;52.222;20.916;2023-04-08T08:37:27;100997.72;;;12.80;61.58
21779;BME280;11050;52.222;20.916;2023-04-08T08:39:52;100997.56;;;12.87;62.68
21779;BME280;11050;52.222;20.916;2023-04-08T08:42:23;100995.78;;;12.97;61.03
21779;BME280;11050;52.222;20.916;2023-04-08T08:44:50;100989.88;;;12.89;59.05
21779;BME280;11050;52.222;20.916;2023-04-08T08:47:16;100994.78;;;12.87;59.67
21779;BME280;11050;52.222;20.916;2023-04-08T08:49:43;100993.03;;;12.81;61.92
21779;BME280;11050;52.222;20.916;2023-04-08T08:52:11;100993.88;;;12.98;61.46
21779;BME280;11050;52.222;20.916;2023-04-08T08:54:40;100998.31;;;13.15;60.23
21779;BME280;11050;52.222;20.916;2023-04-08T08:57:17;100986.25;;;13.21;59.90
21779;BME280;11050;52.222;20.916;2023-04-08T08:59:46;100997.00;;;13.40;58.49
21779;BME280;11050;52.222;20.916;2023-04-08T09:02:30;100997.63;;;13.47;57.49
21779;BME280;11050;52.222;20.916;2023-04-08T09:05:00;100992.31;;;13.62;59.92
21779;BME280;11050;52.222;20.916;2023-04-08T09:07:27;100997.44;;;13.75;58.39
21779;BME280;11050;52.222;20.916;2023-04-08T09:09:56;100995.66;;;13.85;57.96
21779;BME280;11050;52.222;20.916;2023-04-08T09:12:24;100992.75;;;13.97;56.49
21779;BME280;11050;52.222;20.916;2023-04-08T09:14:50;100998.06;;;14.03;55.81
21779;BME280;11050;52.222;20.916;2023-04-08T09:17:38;100997.75;;;14.00;55.89
21779;BME280;11050;52.222;20.916;2023-04-08T09:20:09;101007.19;;;14.04;54.17
21779;BME280;11050;52.222;20.916;2023-04-08T09:25:31;101001.78;;;14.14;55.36
21779;BME280;11050;52.222;20.916;2023-04-08T09:27:58;101000.28;;;14.28;54.51
21779;BME280;11050;52.222;20.916;2023-04-08T09:30:25;101008.03;;;14.31;54.64
21779;BME280;11050;52.222;20.916;2023-04-08T09:32:56;101002.94;;;14.45;55.11
21779;BME280;11050;52.222;20.916;2023-04-08T09:35:24;101016.13;;;14.64;54.75
21779;BME280;11050;52.222;20.916;2023-04-08T09:37:51;101010.19;;;14.82;54.13
21779;BME280;11050;52.222;20.916;2023-04-08T09:40:17;101006.94;;;14.90;53.66
21779;BME280;11050;52.222;20.916;2023-04-08T09:42:46;101010.00;;;14.94;54.23
21779;BME280;11050;52.222;20.916;2023-04-08T09:45:15;101005.13;;;15.06;52.91
21779;BME280;11050;52.222;20.916;2023-04-08T09:47:54;101014.59;;;15.15;52.52
21779;BME280;11050;52.222;20.916;2023-04-08T09:50:28;101007.44;;;15.24;50.00
21779;BME280;11050;52.222;20.916;2023-04-08T09:55:55;101005.50;;;15.25;49.56
21779;BME280;11050;52.222;20.916;2023-04-08T09:58:32;101001.97;;;15.34;50.54
21779;BME280;11050;52.222;20.916;2023-04-08T10:01:02;101004.28;;;15.42;49.91
21779;BME280;11050;52.222;20.916;2023-04-08T10:03:34;100989.59;;;15.47;50.15
21779;BME280;11050;52.222;20.916;2023-04-08T10:06:02;100993.28;;;15.62;49.66
21779;BME280;11050;52.222;20.916;2023-04-08T10:08:29;100999.72;;;15.78;48.84
21779;BME280;11050;52.222;20.916;2023-04-08T10:10:57;100987.53;;;15.79;48.94
21779;BME280;11050;52.222;20.916;2023-04-08T10:13:24;100995.84;;;15.74;48.35
21779;BME280;11050;52.222;20.916;2023-04-08T10:18:44;100993.34;;;15.82;47.60
21779;BME280;11050;52.222;20.916;2023-04-08T10:24:09;100975.44;;;16.15;47.28
21779;BME280;11050;52.222;20.916;2023-04-08T10:26:38;100991.56;;;16.38;48.05
21779;BME280;11050;52.222;20.916;2023-04-08T10:31:46;100989.38;;;16.65;46.47
21779;BME280;11050;52.222;20.916;2023-04-08T10:34:20;100988.84;;;16.63;44.82
21779;BME280;11050;52.222;20.916;2023-04-08T10:36:48;100983.84;;;16.75;45.85
21779;BME280;11050;52.222;20.916;2023-04-08T10:39:15;100978.00;;;16.97;44.77
21779;BME280;11050;52.222;20.916;2023-04-08T10:41:42;100980.50;;;17.03;44.96
21779;BME280;11050;52.222;20.916;2023-04-08T10:44:19;100971.88;;;17.10;44.06
21779;BME280;11050;52.222;20.916;2023-04-08T10:46:47;100959.34;;;17.23;43.88
21779;BME280;11050;52.222;20.916;2023-04-08T10:49:14;100969.34;;;17.29;43.56
21779;BME280;11050;52.222;20.916;2023-04-08T10:51:40;100973.22;;;17.48;42.89
21779;BME280;11050;52.222;20.916;2023-04-08T10:54:12;100972.06;;;17.54;41.90
21779;BME280;11050;52.222;20.916;2023-04-08T10:56:50;100970.38;;;17.63;41.11
21779;BME280;11050;52.222;20.916;2023-04-08T10:59:30;100972.38;;;18.01;40.95
21779;BME280;11050;52.222;20.916;2023-04-08T11:01:59;100959.34;;;18.45;40.62
21779;BME280;11050;52.222;20.916;2023-04-08T11:04:25;100967.31;;;18.90;39.23
21779;BME280;11050;52.222;20.916;2023-04-08T11:06:51;100952.31;;;19.10;38.27
21779;BME280;11050;52.222;20.916;2023-04-08T11:09:18;100962.38;;;19.40;38.35
21779;BME280;11050;52.222;20.916;2023-04-08T11:11:45;100945.91;;;19.62;34.67
21779;BME280;11050;52.222;20.916;2023-04-08T11:14:12;100945.59;;;19.87;36.40
21779;BME280;11050;52.222;20.916;2023-04-08T11:16:38;100959.28;;;20.44;35.41
21779;BME280;11050;52.222;20.916;2023-04-08T11:19:06;100957.97;;;20.74;34.46
21779;BME280;11050;52.222;20.916;2023-04-08T11:21:35;100956.44;;;20.63;35.33
21779;BME280;11050;52.222;20.916;2023-04-08T11:24:08;100955.91;;;21.12;35.38
21779;BME280;11050;52.222;20.916;2023-04-08T11:26:36;100939.38;;;21.56;32.94
21779;BME280;11050;52.222;20.916;2023-04-08T11:29:03;100949.31;;;21.89;31.30
21779;BME280;11050;52.222;20.916;2023-04-08T11:31:29;100954.00;;;22.29;30.49
21779;BME280;11050;52.222;20.916;2023-04-08T11:33:54;100962.84;;;22.81;29.81
21779;BME280;11050;52.222;20.916;2023-04-08T11:36:21;100959.25;;;23.11;29.48
21779;BME280;11050;52.222;20.916;2023-04-08T11:38:47;100955.88;;;23.62;27.87
21779;BME280;11050;52.222;20.916;2023-04-08T11:41:13;100949.78;;;24.24;27.53
21779;BME280;11050;52.222;20.916;2023-04-08T11:43:54;100952.38;;;25.06;27.07
21779;BME280;11050;52.222;20.916;2023-04-08T11:46:21;100958.97;;;25.65;25.72
21779;BME280;11050;52.222;20.916;2023-04-08T11:49:07;100956.66;;;25.96;24.39
21779;BME280;11050;52.222;20.916;2023-04-08T11:51:34;100957.16;;;25.06;25.70
21779;BME280;11050;52.222;20.916;2023-04-08T11:54:04;100954.06;;;24.82;25.21
21779;BME280;11050;52.222;20.916;2023-04-08T11:56:44;100954.31;;;25.23;25.33
21779;BME280;11050;52.222;20.916;2023-04-08T11:59:13;100944.56;;;25.67;24.82
21779;BME280;11050;52.222;20.916;2023-04-08T12:01:38;100943.75;;;25.95;24.82
21779;BME280;11050;52.222;20.916;2023-04-08T12:04:04;100940.94;;;26.45;24.84
21779;BME280;11050;52.222;20.916;2023-04-08T12:06:31;100947.31;;;27.07;23.65
21779;BME280;11050;52.222;20.916;2023-04-08T12:08:56;100943.78;;;27.67;22.34
21779;BME280;11050;52.222;20.916;2023-04-08T12:11:23;100945.69;;;27.99;21.90
21779;BME280;11050;52.222;20.916;2023-04-08T12:13:48;100947.56;;;28.08;20.75
21779;BME280;11050;52.222;20.916;2023-04-08T12:16:15;100942.53;;;28.41;21.09
21779;BME280;11050;52.222;20.916;2023-04-08T12:18:41;100951.88;;;28.96;20.04
21779;BME280;11050;52.222;20.916;2023-04-08T12:21:07;100949.50;;;29.57;18.93
21779;BME280;11050;52.222;20.916;2023-04-08T12:23:32;100933.94;;;29.98;18.93
21779;BME280;11050;52.222;20.916;2023-04-08T12:25:58;100944.22;;;30.37;18.74
21779;BME280;11050;52.222;20.916;2023-04-08T12:28:24;100931.75;;;30.42;18.01
21779;BME280;11050;52.222;20.916;2023-04-08T12:30:50;100928.31;;;30.52;18.53
21779;BME280;11050;52.222;20.916;2023-04-08T12:33:16;100930.38;;;31.12;19.03
21779;BME280;11050;52.222;20.916;2023-04-08T12:35:41;100924.81;;;31.38;17.84
21779;BME280;11050;52.222;20.916;2023-04-08T12:38:07;100913.31;;;30.51;18.43
21779;BME280;11050;52.222;20.916;2023-04-08T12:40:33;100928.97;;;29.76;18.91
21779;BME280;11050;52.222;20.916;2023-04-08T12:42:59;100924.81;;;28.16;20.29
21779;BME280;11050;52.222;20.916;2023-04-08T12:45:25;100920.72;;;26.43;22.79
21779;BME280;11050;52.222;20.916;2023-04-08T12:47:51;100908.47;;;26.39;22.05
21779;BME280;11050;52.222;20.916;2023-04-08T12:50:16;100916.34;;;27.32;21.83
21779;BME280;11050;52.222;20.916;2023-04-08T12:52:42;100917.75;;;28.10;20.58
21779;BME280;11050;52.222;20.916;2023-04-08T12:55:08;100896.38;;;28.25;20.17
21779;BME280;11050;52.222;20.916;2023-04-08T12:57:35;100911.16;;;27.82;20.95
21779;BME280;11050;52.222;20.916;2023-04-08T13:00:00;100903.41;;;27.55;21.21
21779;BME280;11050;52.222;20.916;2023-04-08T13:02:26;100904.81;;;28.37;20.27
21779;BME280;11050;52.222;20.916;2023-04-08T13:04:52;100912.84;;;28.74;20.02